Time;durP1;ratioP1;P1;durP2;ratioP2;P2;SDS_P1;SDS_P2;PMS_P1;PMS_P2;Temp;Humidity;BMP_temperature;BMP_pressure;BME280_temperature;BME280_humidity;BME280_pressure;Samples;Min_cycle;Max_cycle;Signal;HPM_P1;HPM_P2
2022/08/31 00:05:59;;;;;;;54.38;51.58;;;;;;;24.46;37.63;101972.16;4987357;28;20047;-73
2022/08/31 00:08:25;;;;;;;53.67;51.20;;;;;;;24.43;38.00;101967.25;4974586;28;20035;-73
2022/08/31 00:10:53;;;;;;;56.20;53.15;;;;;;;24.40;37.99;101975.00;4974425;28;20522;-74
2022/08/31 00:13:21;;;;;;;54.30;51.60;;;;;;;24.38;38.20;101974.50;4974727;28;20042;-74
2022/08/31 00:15:47;;;;;;;53.20;50.42;;;;;;;24.36;37.79;101971.22;4974169;28;20069;-76
2022/08/31 00:18:14;;;;;;;52.90;50.20;;;;;;;24.35;38.16;101968.78;4973260;28;20054;-73
2022/08/31 00:20:39;;;;;;;55.70;53.00;;;;;;;24.33;38.37;101968.25;4972966;28;20486;-73
2022/08/31 00:23:08;;;;;;;54.90;52.00;;;;;;;24.31;38.43;101968.56;4975261;28;20085;-76
2022/08/31 00:25:36;;;;;;;54.75;52.00;;;;;;;24.29;38.00;101973.59;4978265;28;20463;-79
2022/08/31 00:28:03;;;;;;;54.17;50.57;;;;;;;24.27;38.50;101970.31;4978264;28;20031;-75
2022/08/31 00:30:29;;;;;;;51.70;49.15;;;;;;;24.27;38.43;101969.50;4978398;28;20280;-74
2022/08/31 00:32:55;;;;;;;54.72;52.05;;;;;;;24.23;38.48;101968.44;4978133;28;20417;-75
2022/08/31 00:35:20;;;;;;;54.53;51.85;;;;;;;24.22;38.72;101969.56;4993357;28;20463;-75
2022/08/31 00:37:45;;;;;;;57.38;54.55;;;;;;;24.21;38.73;101967.94;4977952;28;20035;-75
2022/08/31 00:40:12;;;;;;;54.10;51.60;;;;;;;24.18;38.55;101974.88;4978320;28;20117;-75
2022/08/31 00:42:37;;;;;;;53.30;50.35;;;;;;;24.17;38.28;101962.22;4977846;28;20035;-74
2022/08/31 00:45:03;;;;;;;53.45;50.72;;;;;;;24.14;38.48;101974.69;4977956;28;20046;-74
2022/08/31 00:47:29;;;;;;;54.50;51.45;;;;;;;24.11;38.83;101969.75;4977853;28;20046;-75
2022/08/31 00:49:54;;;;;;;53.00;50.40;;;;;;;24.09;38.14;101974.78;4978271;28;20437;-75
2022/08/31 00:52:26;;;;;;;53.42;50.83;;;;;;;24.06;38.60;101964.34;4977483;28;20070;-74
2022/08/31 00:55:10;;;;;;;55.70;52.92;;;;;;;24.05;38.42;101964.66;4978007;28;20074;-73
2022/08/31 00:57:40;;;;;;;52.78;50.08;;;;;;;24.03;38.73;101966.91;4978122;28;20047;-79
2022/08/31 01:00:13;;;;;;;53.00;49.90;;;;;;;24.02;38.43;101959.75;4977622;28;20074;-73
2022/08/31 01:02:38;;;;;;;56.20;53.50;;;;;;;23.99;38.85;101961.19;4977259;28;20077;-77
2022/08/31 01:05:05;;;;;;;52.38;49.22;;;;;;;23.97;38.88;101968.94;4992277;28;20379;-75
2022/08/31 01:07:30;;;;;;;50.28;47.75;;;;;;;23.94;39.00;101973.13;4977438;28;20039;-74
2022/08/31 01:09:57;;;;;;;56.10;52.70;;;;;;;23.93;38.95;101970.66;4977509;28;20364;-73
2022/08/31 01:12:24;;;;;;;56.40;53.45;;;;;;;23.90;38.72;101963.00;4977447;28;20050;-74
2022/08/31 01:14:49;;;;;;;51.80;49.30;;;;;;;23.89;38.81;101967.69;4977329;28;20035;-74
2022/08/31 01:17:16;;;;;;;52.65;50.08;;;;;;;23.87;38.60;101969.94;4977895;28;20031;-74
2022/08/31 01:19:50;;;;;;;50.35;47.50;;;;;;;23.85;39.04;101963.09;4977791;28;20030;-74
2022/08/31 01:22:18;;;;;;;50.15;47.55;;;;;;;23.83;38.86;101957.03;4977246;28;20054;-73
2022/08/31 01:24:46;;;;;;;49.58;46.65;;;;;;;23.81;39.21;101959.28;4977137;28;20031;-73
2022/08/31 01:27:15;;;;;;;51.63;48.50;;;;;;;23.78;39.13;101954.38;4977218;28;20109;-73
2022/08/31 01:29:40;;;;;;;50.03;47.58;;;;;;;23.77;39.12;101955.50;4977122;28;20023;-79
2022/08/31 01:32:06;;;;;;;51.60;48.97;;;;;;;23.73;38.76;101947.00;4977149;28;20041;-74
2022/08/31 01:34:32;;;;;;;49.25;46.85;;;;;;;23.72;38.83;101959.97;4976285;28;20418;-75
2022/08/31 01:36:58;;;;;;;53.15;50.55;;;;;;;23.70;39.17;101958.63;4976759;28;20035;-74
2022/08/31 01:39:23;;;;;;;56.47;53.78;;;;;;;23.68;38.91;101950.63;4976870;28;20027;-74
2022/08/31 01:41:48;;;;;;;50.03;47.33;;;;;;;23.67;38.93;101953.72;4976800;28;20394;-74
2022/08/31 01:44:18;;;;;;;52.45;49.63;;;;;;;23.65;39.44;101962.28;4976901;28;20387;-74
2022/08/31 01:46:44;;;;;;;50.53;48.00;;;;;;;23.63;39.34;101955.41;4976949;28;20034;-74
2022/08/31 01:49:11;;;;;;;55.33;52.72;;;;;;;23.61;38.91;101958.50;4976744;28;20038;-75
2022/08/31 01:51:37;;;;;;;52.33;49.78;;;;;;;23.60;39.73;101958.78;4976426;28;20042;-75
2022/08/31 01:54:03;;;;;;;48.35;46.03;;;;;;;23.57;39.31;101957.44;4976355;28;20499;-75
2022/08/31 01:56:32;;;;;;;51.40;48.58;;;;;;;23.55;39.08;101957.75;4976602;28;20039;-75
2022/08/31 01:58:58;;;;;;;51.78;48.60;;;;;;;23.54;39.02;101958.06;4976213;28;20387;-75
2022/08/31 02:01:28;;;;;;;54.22;51.63;;;;;;;23.52;38.89;101963.06;4976439;28;20030;-75
2022/08/31 02:03:53;;;;;;;52.85;50.15;;;;;;;23.49;39.11;101956.19;4976173;28;20066;-76
2022/08/31 02:06:19;;;;;;;52.47;49.83;;;;;;;23.48;39.48;101970.28;4976519;28;20129;-73
2022/08/31 02:08:44;;;;;;;51.88;49.28;;;;;;;23.47;39.03;101963.13;4976094;28;20502;-77
2022/08/31 02:11:09;;;;;;;51.22;48.60;;;;;;;23.45;39.68;101968.13;4991324;28;20030;-75
2022/08/31 02:13:35;;;;;;;49.65;47.17;;;;;;;23.42;39.61;101964.03;4976938;28;20356;-74
2022/08/31 02:16:02;;;;;;;48.33;45.72;;;;;;;23.41;39.76;101961.56;4976509;28;20086;-75
2022/08/31 02:18:27;;;;;;;46.55;44.35;;;;;;;23.39;39.40;101966.59;4976705;28;20066;-74
2022/08/31 02:20:53;;;;;;;49.70;47.30;;;;;;;23.38;39.46;101964.94;4976416;28;20066;-75
2022/08/31 02:23:18;;;;;;;48.08;45.78;;;;;;;23.35;39.85;101963.59;4974879;28;20042;-74
2022/08/31 02:25:44;;;;;;;49.38;46.88;;;;;;;23.33;39.82;101963.91;4976140;28;20035;-77
2022/08/31 02:28:12;;;;;;;50.08;47.45;;;;;;;23.30;39.73;101970.00;4975787;28;20057;-74
2022/08/31 02:30:38;;;;;;;48.10;45.60;;;;;;;23.28;39.37;101966.75;4991001;28;20043;-75
2022/08/31 02:33:04;;;;;;;52.45;48.15;;;;;;;23.26;39.39;101974.50;4975617;28;20027;-74
2022/08/31 02:35:29;;;;;;;49.70;47.05;;;;;;;23.25;39.58;101972.03;4975907;28;20085;-75
2022/08/31 02:37:54;;;;;;;50.63;48.03;;;;;;;23.22;40.00;101978.13;4976077;28;20094;-73
2022/08/31 02:40:20;;;;;;;50.17;47.67;;;;;;;23.21;39.88;101971.81;4975870;28;20122;-74
2022/08/31 02:42:45;;;;;;;50.15;47.75;;;;;;;23.19;39.41;101968.53;4975673;28;20475;-77
2022/08/31 02:45:11;;;;;;;48.63;46.30;;;;;;;23.17;39.75;101972.69;4975933;28;20127;-75
2022/08/31 02:47:36;;;;;;;48.85;46.45;;;;;;;23.15;39.42;101967.47;4975174;28;20031;-74
2022/08/31 02:50:04;;;;;;;47.40;45.00;;;;;;;23.13;39.48;101964.19;4976034;28;20034;-75
2022/08/31 02:52:30;;;;;;;49.50;46.65;;;;;;;23.11;39.89;101970.03;4975608;28;20038;-72
2022/08/31 02:54:55;;;;;;;51.65;49.05;;;;;;;23.10;39.38;101967.53;4975549;28;20074;-74
2022/08/31 02:57:21;;;;;;;48.55;45.95;;;;;;;23.07;39.49;101965.41;4975790;28;20455;-74
2022/08/31 02:59:47;;;;;;;50.78;48.17;;;;;;;23.06;39.45;101966.53;4975898;28;20043;-77
2022/08/31 03:02:12;;;;;;;49.53;46.97;;;;;;;23.05;39.47;101962.09;4975310;28;20426;-73
2022/08/31 03:04:38;;;;;;;49.17;46.67;;;;;;;23.03;40.00;101969.84;4990634;28;20027;-74
2022/08/31 03:07:04;;;;;;;50.75;48.13;;;;;;;23.01;40.07;101963.84;4975497;28;20069;-74
2022/08/31 03:09:31;;;;;;;45.63;43.22;;;;;;;22.99;39.52;101966.88;4975769;28;20035;-73
2022/08/31 03:11:57;;;;;;;47.95;45.45;;;;;;;22.98;39.99;101964.41;4975732;28;20490;-73
2022/08/31 03:14:22;;;;;;;49.92;47.53;;;;;;;22.96;39.83;101961.13;4975194;28;20034;-74
2022/08/31 03:16:47;;;;;;;48.25;45.85;;;;;;;22.94;40.03;101960.59;4975171;28;20035;-77
2022/08/31 03:19:13;;;;;;;49.00;46.60;;;;;;;22.93;39.98;101964.44;4974827;28;20463;-74
2022/08/31 03:21:38;;;;;;;46.83;44.55;;;;;;;22.90;39.75;101963.91;4974808;28;20539;-74
2022/08/31 03:24:03;;;;;;;47.40;45.10;;;;;;;22.89;39.71;101959.53;4990388;28;20034;-76
2022/08/31 03:26:29;;;;;;;48.38;45.83;;;;;;;22.87;39.88;101966.47;4975061;28;20505;-74
2022/08/31 03:28:54;;;;;;;49.17;46.58;;;;;;;22.85;39.79;101963.19;4974666;28;20109;-74
2022/08/31 03:31:21;;;;;;;46.17;43.95;;;;;;;22.82;39.96;101961.84;4974680;28;20031;-75
2022/08/31 03:33:47;;;;;;;47.25;44.95;;;;;;;22.81;40.05;101973.97;4974919;28;20042;-74
2022/08/31 03:36:14;;;;;;;48.33;46.00;;;;;;;22.79;40.17;101973.44;4989771;28;20395;-75
2022/08/31 03:38:39;;;;;;;46.90;44.65;;;;;;;22.78;39.98;101976.50;4989650;28;20098;-74
2022/08/31 03:41:05;;;;;;;47.22;44.83;;;;;;;22.76;40.27;101971.28;4989665;28;20035;-75
2022/08/31 03:43:30;;;;;;;49.45;46.92;;;;;;;22.75;39.96;101979.84;4989726;28;20066;-73
2022/08/31 03:45:56;;;;;;;46.65;44.17;;;;;;;22.73;40.35;101977.41;4974706;28;20036;-75
2022/08/31 03:48:21;;;;;;;49.08;46.38;;;;;;;22.71;40.29;101971.34;4989875;28;20070;-76
2022/08/31 03:50:47;;;;;;;47.88;45.35;;;;;;;22.69;39.89;101979.91;4974899;28;20460;-74
2022/08/31 03:53:12;;;;;;;50.08;47.65;;;;;;;22.67;40.29;101973.88;4974656;28;20046;-75
2022/08/31 03:55:40;;;;;;;47.58;45.30;;;;;;;22.66;39.75;101976.94;4975032;28;20129;-74
2022/08/31 03:58:06;;;;;;;44.97;42.67;;;;;;;22.64;39.98;101968.16;4974041;28;20035;-74
2022/08/31 04:00:32;;;;;;;48.25;45.88;;;;;;;22.63;40.20;101969.28;4989311;28;20033;-76
2022/08/31 04:02:58;;;;;;;47.78;45.40;;;;;;;22.60;39.84;101965.16;4989484;28;20397;-74
2022/08/31 04:05:25;;;;;;;45.95;43.63;;;;;;;22.59;39.95;101965.44;4975163;28;20417;-74
2022/08/31 04:07:51;;;;;;;46.95;44.65;;;;;;;22.56;39.92;101969.63;4974561;28;20072;-77
2022/08/31 04:10:17;;;;;;;47.72;45.42;;;;;;;22.54;40.29;101963.56;4989200;28;20113;-75
2022/08/31 04:12:42;;;;;;;47.78;45.40;;;;;;;22.53;40.32;101966.63;4974304;28;20435;-75
2022/08/31 04:15:09;;;;;;;48.70;46.10;;;;;;;22.50;40.36;101962.50;4974749;28;20031;-74
2022/08/31 04:17:35;;;;;;;45.05;42.78;;;;;;;22.49;40.25;101969.16;4974813;28;20034;-76
2022/08/31 04:20:01;;;;;;;47.78;45.10;;;;;;;22.47;39.96;101965.84;4974886;28;20467;-76
2022/08/31 04:22:26;;;;;;;50.33;47.92;;;;;;;22.44;40.35;101967.25;4974733;28;20046;-75
2022/08/31 04:24:52;;;;;;;45.85;43.35;;;;;;;22.42;39.86;101977.75;4989478;28;20035;-77
2022/08/31 04:27:17;;;;;;;46.53;44.25;;;;;;;22.41;39.81;101969.81;4989611;28;20038;-76
2022/08/31 04:29:42;;;;;;;45.42;43.22;;;;;;;22.38;40.29;101973.97;4974394;28;20114;-74
2022/08/31 04:32:08;;;;;;;49.40;46.65;;;;;;;22.38;39.74;101975.91;4974284;28;20030;-75
2022/08/31 04:34:33;;;;;;;47.20;44.67;;;;;;;22.36;39.86;101973.44;4975014;28;20034;-73
2022/08/31 04:36:59;;;;;;;46.45;44.22;;;;;;;22.33;39.72;101979.53;4974028;28;20041;-74
2022/08/31 04:39:24;;;;;;;45.25;43.05;;;;;;;22.32;39.85;101980.63;4989508;28;20043;-74
2022/08/31 04:41:49;;;;;;;47.30;44.70;;;;;;;22.31;39.80;101981.75;4974337;28;20439;-75
2022/08/31 04:44:15;;;;;;;47.55;44.75;;;;;;;22.29;39.91;101985.91;4974405;28;20035;-74
2022/08/31 04:46:40;;;;;;;45.90;43.60;;;;;;;22.27;40.28;101986.19;4974748;28;20111;-75
2022/08/31 04:49:09;;;;;;;45.92;43.53;;;;;;;22.26;39.98;101992.81;4974206;28;20074;-76
2022/08/31 04:51:36;;;;;;;44.90;42.75;;;;;;;22.23;40.14;101990.66;4974191;28;20494;-73
2022/08/31 04:54:05;;;;;;;47.08;44.58;;;;;;;22.21;39.90;101987.34;4973815;28;20058;-73
2022/08/31 04:56:33;;;;;;;45.22;42.95;;;;;;;22.19;40.33;101995.88;4974630;28;20035;-73
2022/08/31 04:59:04;;;;;;;45.23;43.00;;;;;;;22.18;40.15;101993.41;4974266;28;20037;-74
2022/08/31 05:01:33;;;;;;;45.42;43.22;;;;;;;22.15;39.96;101999.47;4974155;28;20041;-74
2022/08/31 05:04:00;;;;;;;47.17;44.85;;;;;;;22.12;39.93;101992.63;4973981;28;20031;-75
2022/08/31 05:06:29;;;;;;;45.75;43.55;;;;;;;22.11;39.70;101993.75;4974017;28;20039;-73
2022/08/31 05:08:58;;;;;;;44.58;42.08;;;;;;;22.10;40.32;101991.28;4973930;28;20026;-73
2022/08/31 05:11:24;;;;;;;45.08;42.80;;;;;;;22.07;39.72;101989.09;4976687;28;20027;-73
2022/08/31 05:13:51;;;;;;;43.95;41.75;;;;;;;22.06;39.75;101992.97;4977474;28;20185;-74
2022/08/31 05:16:17;;;;;;;44.40;42.15;;;;;;;22.03;40.25;101994.38;4977271;28;20031;-73
2022/08/31 05:18:45;;;;;;;42.92;40.72;;;;;;;22.01;39.74;101994.66;4977347;28;20034;-73
2022/08/31 05:21:15;;;;;;;44.93;42.53;;;;;;;21.98;40.33;101991.69;4977327;28;20026;-73
2022/08/31 05:23:44;;;;;;;43.03;40.92;;;;;;;21.96;39.96;101989.22;4977238;28;20030;-73
2022/08/31 05:26:15;;;;;;;44.80;42.60;;;;;;;21.94;40.10;102002.44;4977196;28;20046;-74
2022/08/31 05:28:41;;;;;;;43.80;41.47;;;;;;;21.91;40.14;102004.94;4977735;28;20135;-73
2022/08/31 05:31:06;;;;;;;45.17;42.88;;;;;;;21.89;39.67;102005.22;4977356;28;20105;-73
2022/08/31 05:33:31;;;;;;;44.65;42.42;;;;;;;21.87;40.12;102004.69;4977128;28;20035;-73
2022/08/31 05:36:00;;;;;;;43.90;41.65;;;;;;;21.87;39.92;102009.38;4992259;28;20061;-71
2022/08/31 05:38:26;;;;;;;43.63;41.47;;;;;;;21.86;40.14;102016.00;4977280;28;20022;-73
2022/08/31 05:40:53;;;;;;;45.50;43.30;;;;;;;21.82;40.23;102012.97;4977269;28;20478;-71
2022/08/31 05:43:18;;;;;;;43.55;41.35;;;;;;;21.81;39.81;102014.91;4976845;28;20507;-72
2022/08/31 05:45:44;;;;;;;43.83;41.53;;;;;;;21.79;39.59;102013.56;4976565;28;20110;-72
2022/08/31 05:48:09;;;;;;;45.35;43.05;;;;;;;21.77;39.84;102024.03;4976799;28;20057;-71
2022/08/31 05:50:36;;;;;;;43.92;41.63;;;;;;;21.75;39.74;102018.00;4991583;28;20026;-72
2022/08/31 05:53:02;;;;;;;44.03;41.83;;;;;;;21.72;40.04;102013.06;4976766;28;20073;-71
2022/08/31 05:55:28;;;;;;;44.13;41.92;;;;;;;21.71;39.77;102009.50;4976885;28;20458;-71
2022/08/31 05:57:54;;;;;;;44.90;42.70;;;;;;;21.69;39.62;102011.72;4992235;28;20098;-72
2022/08/31 06:00:19;;;;;;;44.47;42.22;;;;;;;21.68;40.06;102017.53;4976613;28;20451;-72
2022/08/31 06:02:45;;;;;;;42.80;40.60;;;;;;;21.67;39.53;102013.09;4976665;28;20037;-71
2022/08/31 06:05:10;;;;;;;42.65;40.35;;;;;;;21.66;39.59;102016.97;4976413;28;20109;-71
2022/08/31 06:07:35;;;;;;;42.90;40.50;;;;;;;21.64;40.14;102024.69;4976479;28;20033;-72
2022/08/31 06:10:01;;;;;;;43.45;41.15;;;;;;;21.61;39.74;102024.16;4976311;28;20035;-71
2022/08/31 06:12:27;;;;;;;43.08;40.33;;;;;;;21.60;39.72;102025.25;4991345;28;20440;-71
2022/08/31 06:14:54;;;;;;;42.25;40.20;;;;;;;21.58;39.75;102021.97;4976796;28;20031;-70
2022/08/31 06:17:19;;;;;;;45.33;42.33;;;;;;;21.57;39.69;102028.59;4976163;28;20038;-72
2022/08/31 06:19:45;;;;;;;41.88;39.88;;;;;;;21.55;39.99;102025.31;4975995;28;20022;-71
2022/08/31 06:22:10;;;;;;;46.95;44.47;;;;;;;21.53;40.11;102026.69;4990536;28;20030;-71
2022/08/31 06:24:37;;;;;;;43.65;41.47;;;;;;;21.52;40.21;102031.38;4976354;28;20037;-71
2022/08/31 06:27:04;;;;;;;44.25;42.15;;;;;;;21.51;39.78;102028.91;4976081;28;20356;-72
2022/08/31 06:29:30;;;;;;;40.85;38.65;;;;;;;21.50;40.04;102033.59;4976568;28;20101;-72
2022/08/31 06:31:56;;;;;;;44.67;42.38;;;;;;;21.48;40.06;102035.78;4975907;28;20407;-71
2022/08/31 06:34:22;;;;;;;43.90;41.72;;;;;;;21.47;39.97;102039.66;4975850;28;20031;-72
2022/08/31 06:36:48;;;;;;;42.28;40.13;;;;;;;21.46;40.13;102042.69;4975851;28;20032;-71
2022/08/31 06:39:14;;;;;;;42.97;40.85;;;;;;;21.45;40.05;102046.53;4991463;28;20030;-73
2022/08/31 06:41:39;;;;;;;42.53;40.33;;;;;;;21.43;39.74;102038.56;4976426;28;20240;-72
2022/08/31 06:44:07;;;;;;;41.20;39.00;;;;;;;21.41;39.75;102045.47;4975908;28;20034;-72
2022/08/31 06:46:35;;;;;;;41.97;39.72;;;;;;;21.39;40.10;102046.59;4991392;28;20355;-72
2022/08/31 06:49:01;;;;;;;43.20;41.10;;;;;;;21.38;40.01;102050.41;4975338;28;20115;-72
2022/08/31 06:51:27;;;;;;;42.15;39.95;;;;;;;21.36;40.16;102052.59;4975639;28;20086;-71
2022/08/31 06:53:52;;;;;;;42.58;40.58;;;;;;;21.35;40.12;102050.97;4975492;28;20489;-72
2022/08/31 06:56:24;;;;;;;44.58;42.38;;;;;;;21.34;40.40;102062.22;4975631;28;20027;-73
2022/08/31 06:58:51;;;;;;;42.03;39.63;;;;;;;21.32;40.16;102059.78;4975798;28;20027;-71
2022/08/31 07:01:21;;;;;;;46.38;43.97;;;;;;;21.30;40.18;102056.47;4975464;28;20031;-73
2022/08/31 07:03:48;;;;;;;41.80;39.50;;;;;;;21.30;40.24;102055.66;4975285;28;20106;-74
2022/08/31 07:06:25;;;;;;;43.10;41.00;;;;;;;21.28;40.30;102055.94;4975323;28;20471;-74
2022/08/31 07:08:53;;;;;;;42.35;40.25;;;;;;;21.26;40.14;102051.84;4975354;28;20037;-71
2022/08/31 07:11:40;;;;;;;41.92;39.92;;;;;;;21.23;40.25;102058.72;4974829;28;20037;-72
2022/08/31 07:14:08;;;;;;;43.45;41.22;;;;;;;21.23;40.25;102050.47;4975344;28;20113;-72
2022/08/31 07:16:34;;;;;;;40.92;38.67;;;;;;;21.20;40.14;102056.53;4975125;28;20035;-71
2022/08/31 07:19:08;;;;;;;41.85;39.88;;;;;;;21.20;40.53;102061.22;4975292;28;20497;-71
2022/08/31 07:21:38;;;;;;;43.25;41.10;;;;;;;21.20;40.49;102058.47;4975212;28;20478;-71
2022/08/31 07:24:04;;;;;;;40.88;38.40;;;;;;;21.19;40.60;102063.13;4975547;28;20039;-72
2022/08/31 07:26:37;;;;;;;40.08;38.17;;;;;;;21.17;40.72;102057.94;4975456;28;20046;-71
2022/08/31 07:29:04;;;;;;;41.97;39.95;;;;;;;21.16;40.28;102056.25;4974873;28;20502;-71
2022/08/31 07:31:39;;;;;;;40.97;38.97;;;;;;;21.17;40.74;102057.09;4975320;28;20045;-71
2022/08/31 07:34:06;;;;;;;41.08;39.05;;;;;;;21.18;40.77;102064.25;4974047;28;20034;-73
2022/08/31 07:36:33;;;;;;;39.90;37.95;;;;;;;21.17;40.73;102057.94;4974441;28;20042;-73
2022/08/31 07:44:26;;;;;;;41.53;39.42;;;;;;;21.20;40.78;102062.03;4974936;28;20446;-72
2022/08/31 07:46:53;;;;;;;39.70;37.78;;;;;;;21.21;40.93;102060.91;4989475;28;20027;-72
2022/08/31 07:49:20;;;;;;;42.47;40.08;;;;;;;21.23;40.86;102061.47;4974256;28;20465;-73
2022/08/31 07:51:51;;;;;;;39.47;37.42;;;;;;;21.25;40.67;102061.19;4974392;28;20046;-72
2022/08/31 07:54:26;;;;;;;40.92;38.92;;;;;;;21.27;40.33;102064.47;4974273;28;20043;-73
2022/08/31 07:57:02;;;;;;;41.65;39.60;;;;;;;21.28;40.83;102072.44;4974434;28;20034;-71
2022/08/31 07:59:28;;;;;;;42.50;40.40;;;;;;;21.31;40.46;102074.59;4974417;28;20026;-72
2022/08/31 08:01:54;;;;;;;39.95;37.95;;;;;;;21.34;40.72;102082.31;4974038;28;20466;-72
2022/08/31 08:04:24;;;;;;;41.67;39.67;;;;;;;21.38;40.42;102082.56;4974258;28;20070;-73
2022/08/31 08:06:53;;;;;;;41.33;39.25;;;;;;;21.41;40.83;102078.44;4974287;28;20034;-71
2022/08/31 08:09:18;;;;;;;41.80;39.60;;;;;;;21.44;40.39;102081.44;4974222;28;20034;-72
2022/08/31 08:11:45;;;;;;;42.90;40.63;;;;;;;21.49;40.33;102083.34;4974010;28;20089;-72
2022/08/31 08:14:11;;;;;;;44.00;41.38;;;;;;;21.54;40.74;102078.63;4973981;28;20027;-73
2022/08/31 08:16:37;;;;;;;43.55;41.25;;;;;;;21.59;40.85;102086.03;4972878;28;20038;-72
2022/08/31 08:19:04;;;;;;;44.67;42.38;;;;;;;21.61;40.93;102090.13;4974162;28;20039;-74
2022/08/31 08:21:29;;;;;;;41.90;39.80;;;;;;;21.67;40.64;102090.09;4973730;28;20383;-74
2022/08/31 08:23:55;;;;;;;42.25;40.15;;;;;;;21.70;40.75;102086.81;4974167;28;20031;-72
2022/08/31 08:26:21;;;;;;;45.17;42.88;;;;;;;21.75;40.82;102084.03;4974537;28;20039;-72
2022/08/31 08:28:47;;;;;;;42.47;40.38;;;;;;;21.80;40.67;102093.06;4974019;28;20027;-72
2022/08/31 08:31:16;;;;;;;43.15;40.92;;;;;;;21.85;40.89;102083.09;4989069;28;20085;-73
2022/08/31 08:33:42;;;;;;;44.60;42.20;;;;;;;21.89;40.89;102082.25;4973980;28;20031;-73
2022/08/31 08:36:08;;;;;;;45.10;42.83;;;;;;;21.93;40.75;102090.75;4973023;28;20061;-73
2022/08/31 08:38:37;;;;;;;45.67;43.20;;;;;;;21.97;40.38;102087.16;4973853;28;20039;-73
2022/08/31 08:41:06;;;;;;;45.30;43.10;;;;;;;22.00;40.63;102088.50;4974175;28;20041;-72
2022/08/31 08:43:39;;;;;;;44.70;42.30;;;;;;;22.06;40.39;102098.34;4973896;28;20443;-72
2022/08/31 08:46:07;;;;;;;46.13;43.92;;;;;;;22.11;40.33;102090.06;4977907;28;20046;-70
2022/08/31 08:48:37;;;;;;;45.50;43.00;;;;;;;22.17;40.47;102090.84;4977441;28;20085;-72
2022/08/31 08:51:12;;;;;;;45.80;43.40;;;;;;;22.20;40.92;102084.78;4978009;28;20035;-72
2022/08/31 08:53:41;;;;;;;45.13;42.92;;;;;;;22.24;40.45;102089.41;4976865;28;20428;-72
2022/08/31 08:56:10;;;;;;;45.22;42.83;;;;;;;22.31;40.97;102091.03;4977558;28;20487;-72
2022/08/31 08:58:41;;;;;;;45.03;42.72;;;;;;;22.35;41.03;102083.81;4992867;28;20062;-72
2022/08/31 09:01:10;;;;;;;44.85;42.35;;;;;;;22.40;40.63;102090.13;4977768;28;20034;-73
2022/08/31 09:03:45;;;;;;;;;;;;;;;22.44;41.00;102093.09;4977793;28;20459;-75
2022/08/31 09:06:41;;;;;;;43.45;41.38;;;;;;;22.47;40.80;102090.56;4977397;28;19925;-73
2022/08/31 09:09:19;;;;;;;45.67;43.38;;;;;;;22.51;40.82;102085.31;4977604;28;20031;-72
2022/08/31 09:11:59;;;;;;;45.63;43.33;;;;;;;22.53;41.20;102083.09;4992676;28;20041;-72
2022/08/31 09:14:49;;;;;;;46.70;44.28;;;;;;;22.58;40.87;102080.31;4976893;28;20383;-74
2022/08/31 09:17:18;;;;;;;46.72;44.08;;;;;;;22.62;40.98;102086.03;4992197;28;20035;-72
2022/08/31 09:20:04;;;;;;;48.83;46.38;;;;;;;22.65;41.17;102074.44;4977055;28;20434;-73
2022/08/31 09:22:48;;;;;;;46.63;44.28;;;;;;;22.68;40.91;102080.19;4977072;28;20038;-74
2022/08/31 09:25:31;;;;;;;48.22;45.28;;;;;;;22.72;41.46;102077.66;4977116;28;20035;-73
2022/08/31 09:28:00;;;;;;;46.40;44.20;;;;;;;22.75;40.97;102073.50;4977079;28;20030;-72
2022/08/31 09:30:37;;;;;;;46.33;44.03;;;;;;;22.78;41.26;102067.41;4976727;28;20121;-74
2022/08/31 09:33:02;;;;;;;48.10;45.50;;;;;;;;;;4976556;28;20039;-71
2022/08/31 09:35:40;;;;;;;46.20;43.63;;;;;;;22.85;41.10;102073.38;4977400;28;20379;-73
2022/08/31 09:38:24;;;;;;;47.50;44.97;;;;;;;22.88;41.34;102078.28;4976657;28;20360;-74
2022/08/31 09:40:51;;;;;;;47.88;45.35;;;;;;;22.92;41.04;102075.78;4977037;28;20086;-72
2022/08/31 09:43:23;;;;;;;46.13;43.63;;;;;;;22.94;41.64;102076.31;4976718;28;20027;-72
2022/08/31 09:46:01;;;;;;;48.55;45.83;;;;;;;22.96;41.55;102071.34;4976583;28;20038;-72
2022/08/31 09:48:54;;;;;;;48.17;45.80;;;;;;;23.00;41.61;102081.50;4991153;28;20034;-72
2022/08/31 09:51:33;;;;;;;49.30;46.88;;;;;;;23.05;41.34;102077.84;4976669;28;20042;-73
2022/08/31 09:57:04;;;;;;;47.88;45.58;;;;;;;23.11;41.25;102062.91;4976641;28;20050;-71
2022/08/31 09:59:40;;;;;;;50.00;47.50;;;;;;;23.17;41.82;102071.94;4991497;28;20054;-72
2022/08/31 10:02:27;;;;;;;48.83;46.42;;;;;;;23.19;41.59;102065.00;4976471;28;20061;-72
2022/08/31 10:04:59;;;;;;;48.92;46.63;;;;;;;23.24;41.78;102067.69;4992232;28;20073;-71
2022/08/31 10:07:37;;;;;;;47.78;45.42;;;;;;;23.27;41.57;102063.50;4976400;28;20110;-75
2022/08/31 10:10:15;;;;;;;49.85;47.05;;;;;;;23.29;41.52;102064.03;4992162;28;20356;-72
2022/08/31 10:12:56;;;;;;;49.47;46.63;;;;;;;23.33;41.87;102068.69;4976342;28;20041;-73
2022/08/31 10:15:41;;;;;;;49.35;46.90;;;;;;;23.38;41.52;102064.19;4975966;28;20039;-72
2022/08/31 10:18:21;;;;;;;50.58;47.88;;;;;;;23.41;41.35;102063.59;4976264;28;20069;-73
2022/08/31 10:20:55;;;;;;;52.05;49.05;;;;;;;23.46;41.30;102052.47;4976393;28;20486;-73
2022/08/31 10:23:35;;;;;;;49.88;47.17;;;;;;;23.51;41.54;102060.69;4975844;28;20121;-73
2022/08/31 10:26:10;;;;;;;50.90;48.30;;;;;;;23.56;42.01;102057.84;4976416;28;20046;-73
2022/08/31 10:28:47;;;;;;;52.70;49.72;;;;;;;23.61;41.65;102059.72;4976405;28;20039;-73
2022/08/31 10:31:22;;;;;;;51.25;48.65;;;;;;;23.64;41.63;102059.13;4976024;28;20042;-74
2022/08/31 10:36:52;;;;;;;55.33;52.13;;;;;;;23.70;41.14;102063.44;4975815;28;20041;-73
2022/08/31 10:39:24;;;;;;;52.97;50.40;;;;;;;23.72;41.70;102055.69;4976044;28;20031;-72
2022/08/31 10:41:50;;;;;;;50.15;47.30;;;;;;;23.75;41.81;102052.34;4976580;28;20035;-72
2022/08/31 10:44:25;;;;;;;49.95;47.42;;;;;;;23.77;41.92;102047.38;4975696;28;20035;-71
2022/08/31 10:46:53;;;;;;;53.30;50.40;;;;;;;23.81;41.81;102040.09;4991366;28;20130;-72
2022/08/31 10:49:22;;;;;;;53.60;50.80;;;;;;;23.85;41.41;102052.19;4976171;28;20439;-72
2022/08/31 10:52:02;;;;;;;50.55;47.92;;;;;;;23.90;41.33;102049.34;4975470;28;20035;-71
2022/08/31 10:54:53;;;;;;;48.83;46.53;;;;;;;23.94;41.47;102044.88;4975153;28;20085;-71
2022/08/31 10:57:31;;;;;;;50.80;47.80;;;;;;;23.97;41.25;102049.78;4990863;28;20027;-72
2022/08/31 10:59:56;;;;;;;50.22;47.65;;;;;;;24.01;41.73;102060.22;4975643;28;20050;-72
2022/08/31 11:02:43;;;;;;;49.20;46.78;;;;;;;24.05;41.46;102052.97;4975347;28;20153;-73
2022/08/31 11:05:40;;;;;;;50.55;48.05;;;;;;;24.08;41.39;102052.38;4975429;28;20073;-74
2022/08/31 11:08:48;;;;;;;52.53;49.38;;;;;;;24.13;41.40;102053.09;4974839;28;20049;-74
2022/08/31 11:11:44;;;;;;;52.42;49.63;;;;;;;24.17;41.22;102050.56;4974502;28;20039;-75
2022/08/31 11:14:22;;;;;;;50.40;48.00;;;;;;;24.19;41.38;102049.13;4974274;28;20391;-73
2022/08/31 11:17:26;;;;;;;52.37;49.57;;;;;;;24.23;41.27;102048.53;4974960;28;20035;-73
2022/08/31 11:20:04;;;;;;;50.78;48.17;;;;;;;24.26;41.41;102051.47;4975367;28;20030;-72
2022/08/31 11:22:51;;;;;;;51.15;48.55;;;;;;;24.29;40.84;102048.13;4975111;28;20054;-76
2022/08/31 11:25:23;;;;;;;52.35;49.65;;;;;;;24.32;41.21;102049.47;4975529;28;20023;-75
2022/08/31 11:28:11;;;;;;;53.72;50.75;;;;;;;24.34;40.89;102048.03;4989953;28;20062;-72
2022/08/31 11:30:45;;;;;;;52.13;49.33;;;;;;;24.37;41.32;102038.31;4974929;28;20467;-72
2022/08/31 11:33:18;;;;;;;50.22;47.72;;;;;;;24.40;41.23;102040.47;4974605;28;20039;-71
2022/08/31 11:39:00;;;;;;;52.97;50.38;;;;;;;24.46;41.77;102032.94;4974844;28;20061;-73